createdAt,value
2019-04-30T00:05:37.421Z,81.63
2019-04-30T00:15:37.372Z,81.61
2019-04-30T00:25:37.333Z,81.61
2019-04-30T00:35:37.419Z,82.80
2019-04-30T00:45:40.010Z,82.50
2019-04-30T00:55:40.275Z,82.31
2019-04-30T01:05:39.700Z,81.59
2019-04-30T01:15:39.044Z,81.89
2019-04-30T01:25:38.859Z,82.42
2019-04-30T01:35:38.217Z,82.49
2019-04-30T01:45:38.678Z,82.24
2019-04-30T01:55:39.015Z,81.84
2019-04-30T02:05:38.611Z,82.45
2019-04-30T02:15:38.991Z,82.15
2019-04-30T02:25:39.616Z,82.71
2019-04-30T02:35:40.461Z,83.54
2019-04-30T02:45:39.939Z,83.71
2019-04-30T02:55:40.255Z,84.31
2019-04-30T03:05:39.238Z,84.51
2019-04-30T03:15:39.521Z,84.83
2019-04-30T03:25:40.345Z,85.54
2019-04-30T03:35:46.565Z,85.53
2019-04-30T03:45:40.010Z,86.28
2019-04-30T03:55:39.862Z,87.16
2019-04-30T04:05:39.727Z,87.74
2019-04-30T04:15:39.711Z,88.08
2019-04-30T04:25:39.737Z,87.89
2019-04-30T04:35:39.311Z,88.80
2019-04-30T04:55:39.846Z,89.17
2019-04-30T05:05:39.732Z,88.72
2019-04-30T05:15:38.958Z,88.95
2019-04-30T05:25:38.989Z,88.98
2019-04-30T05:35:38.834Z,89.05
2019-04-30T05:45:39.020Z,88.63
2019-04-30T05:55:39.368Z,88.59
2019-04-30T06:05:39.331Z,87.17
2019-04-30T06:15:39.104Z,86.05
2019-04-30T06:25:55.703Z,85.11
2019-04-30T06:35:39.071Z,83.81
2019-04-30T06:45:38.791Z,81.77
2019-04-30T06:55:39.169Z,80.27
2019-04-30T07:05:38.915Z,80.80
2019-04-30T07:15:38.999Z,79.70
2019-04-30T07:25:39.087Z,78.38
2019-04-30T07:35:39.750Z,74.33
2019-04-30T07:45:39.298Z,74.39
2019-04-30T07:55:39.266Z,76.79
2019-04-30T08:05:40.223Z,77.50
2019-04-30T08:15:37.469Z,75.57
2019-04-30T08:25:39.090Z,72.64
2019-04-30T08:35:37.383Z,68.37
2019-04-30T08:45:38.575Z,69.43
2019-04-30T08:55:39.083Z,67.41
2019-04-30T09:05:38.617Z,68.45
2019-04-30T09:15:37.345Z,63.16
2019-04-30T09:25:39.659Z,60.87
2019-04-30T09:35:39.375Z,53.89
2019-04-30T09:45:38.517Z,48.70
2019-04-30T09:55:38.926Z,49.62
2019-04-30T10:05:39.137Z,52.00
2019-04-30T10:15:37.490Z,48.08
2019-04-30T10:25:37.557Z,44.77
2019-04-30T10:35:38.535Z,42.54
2019-04-30T10:45:38.811Z,46.71
2019-04-30T10:55:38.735Z,41.23
2019-04-30T11:05:41.018Z,45.38
2019-04-30T11:15:39.309Z,42.11
2019-04-30T11:25:39.926Z,43.20
2019-04-30T11:35:39.349Z,39.50
2019-04-30T11:45:38.849Z,39.65
2019-04-30T11:55:39.024Z,38.28
2019-04-30T12:05:38.933Z,37.59
2019-04-30T12:15:37.527Z,38.49
2019-04-30T12:25:38.821Z,36.10
2019-04-30T12:35:37.553Z,36.38
2019-04-30T12:45:39.308Z,35.80
2019-04-30T12:55:39.179Z,34.49
2019-04-30T13:05:39.463Z,33.85
2019-04-30T13:15:37.676Z,37.64
2019-04-30T13:25:48.929Z,35.74
2019-04-30T13:35:38.976Z,34.10
2019-04-30T13:45:38.819Z,35.05
2019-04-30T13:55:45.703Z,32.93
2019-04-30T14:05:37.557Z,34.87
2019-04-30T14:15:37.604Z,35.86
2019-04-30T14:25:38.651Z,32.72
2019-04-30T14:35:38.639Z,38.03
2019-04-30T14:45:39.032Z,32.61
2019-04-30T14:55:38.941Z,34.01
2019-04-30T15:05:43.605Z,35.94
2019-04-30T15:15:39.135Z,36.25
2019-04-30T15:25:38.764Z,36.53
2019-04-30T15:35:37.562Z,34.98
2019-04-30T15:45:39.151Z,36.74
2019-04-30T15:55:37.607Z,39.39
2019-04-30T16:05:37.537Z,39.33
2019-04-30T16:15:38.559Z,38.33
2019-04-30T16:25:39.049Z,38.96
2019-04-30T16:35:37.565Z,42.46
2019-04-30T16:45:38.951Z,44.58
2019-04-30T16:55:37.611Z,45.80
2019-04-30T17:05:39.490Z,46.58
2019-04-30T17:15:38.350Z,46.89
2019-04-30T17:25:37.640Z,51.09
2019-04-30T17:35:38.774Z,53.80
2019-04-30T17:45:39.196Z,55.65
2019-04-30T17:55:39.124Z,58.91
2019-04-30T18:05:39.113Z,61.39
2019-04-30T18:15:37.570Z,62.77
2019-04-30T18:25:37.594Z,62.87
2019-04-30T18:35:38.831Z,64.74
2019-04-30T18:45:39.372Z,66.33
2019-04-30T18:55:37.587Z,68.34
2019-04-30T19:05:39.344Z,69.42
2019-04-30T19:16:01.430Z,70.81
2019-04-30T19:25:38.615Z,72.51
2019-04-30T19:35:37.599Z,73.26
2019-04-30T19:45:37.654Z,74.48
2019-04-30T19:55:39.256Z,75.67
2019-04-30T20:05:39.458Z,76.94
2019-04-30T20:15:39.201Z,77.99
2019-04-30T20:25:37.581Z,79.77
2019-04-30T20:35:39.012Z,80.55
2019-04-30T20:45:37.533Z,81.37
2019-04-30T20:55:40.509Z,82.15
2019-04-30T21:05:37.605Z,83.39
2019-04-30T21:15:39.438Z,84.83
2019-04-30T21:25:38.725Z,84.36
2019-04-30T21:35:37.553Z,85.25
2019-04-30T21:45:39.475Z,86.11
2019-04-30T21:55:39.637Z,86.97
2019-04-30T22:05:37.566Z,87.24
2019-04-30T22:15:37.522Z,88.17
2019-04-30T22:25:39.234Z,89.19
2019-04-30T22:35:37.542Z,89.79
2019-04-30T22:45:38.247Z,90.22
2019-04-30T22:55:37.608Z,90.79
2019-04-30T23:05:37.530Z,91.12
2019-04-30T23:15:37.534Z,91.63
2019-04-30T23:25:37.600Z,91.95
2019-04-30T23:35:37.544Z,91.98
2019-04-30T23:45:37.622Z,92.70
2019-04-30T23:55:37.578Z,92.70
